sensor_id;sensor_type;location;lat;lon;timestamp;P1;durP1;ratioP1;P2;durP2;ratioP2
22160;SDS011;49035;48.812;11.762;2024-01-30T00:01:54;23.03;;;13.27;;
22160;SDS011;49035;48.812;11.762;2024-01-30T00:04:20;24.90;;;13.13;;
22160;SDS011;49035;48.812;11.762;2024-01-30T00:06:46;25.03;;;12.93;;
22160;SDS011;49035;48.812;11.762;2024-01-30T00:09:11;25.27;;;13.27;;
22160;SDS011;49035;48.812;11.762;2024-01-30T00:11:37;26.80;;;13.37;;
22160;SDS011;49035;48.812;11.762;2024-01-30T00:14:03;23.10;;;13.63;;
22160;SDS011;49035;48.812;11.762;2024-01-30T00:16:29;19.47;;;12.23;;
22160;SDS011;49035;48.812;11.762;2024-01-30T00:18:55;22.60;;;12.37;;
22160;SDS011;49035;48.812;11.762;2024-01-30T00:21:21;22.03;;;12.27;;
22160;SDS011;49035;48.812;11.762;2024-01-30T00:23:47;21.73;;;13.03;;
22160;SDS011;49035;48.812;11.762;2024-01-30T00:26:13;27.30;;;13.23;;
22160;SDS011;49035;48.812;11.762;2024-01-30T00:28:40;25.83;;;14.20;;
22160;SDS011;49035;48.812;11.762;2024-01-30T00:31:05;23.73;;;12.97;;
22160;SDS011;49035;48.812;11.762;2024-01-30T00:33:31;23.33;;;13.97;;
22160;SDS011;49035;48.812;11.762;2024-01-30T00:35:56;23.23;;;13.03;;
22160;SDS011;49035;48.812;11.762;2024-01-30T00:38:22;23.60;;;13.90;;
22160;SDS011;49035;48.812;11.762;2024-01-30T00:40:48;22.87;;;13.37;;
22160;SDS011;49035;48.812;11.762;2024-01-30T00:43:14;26.80;;;14.07;;
22160;SDS011;49035;48.812;11.762;2024-01-30T00:45:40;26.77;;;14.17;;
22160;SDS011;49035;48.812;11.762;2024-01-30T00:48:05;22.40;;;13.23;;
22160;SDS011;49035;48.812;11.762;2024-01-30T00:50:31;22.47;;;13.47;;
22160;SDS011;49035;48.812;11.762;2024-01-30T00:52:56;26.17;;;14.20;;
22160;SDS011;49035;48.812;11.762;2024-01-30T00:55:22;25.63;;;14.07;;
22160;SDS011;49035;48.812;11.762;2024-01-30T00:57:47;25.00;;;13.17;;
22160;SDS011;49035;48.812;11.762;2024-01-30T01:00:13;24.90;;;14.37;;
22160;SDS011;49035;48.812;11.762;2024-01-30T01:02:42;22.83;;;13.27;;
22160;SDS011;49035;48.812;11.762;2024-01-30T01:05:08;30.27;;;12.70;;
22160;SDS011;49035;48.812;11.762;2024-01-30T01:07:33;25.93;;;14.37;;
22160;SDS011;49035;48.812;11.762;2024-01-30T01:09:59;22.07;;;14.27;;
22160;SDS011;49035;48.812;11.762;2024-01-30T01:12:24;29.97;;;14.63;;
22160;SDS011;49035;48.812;11.762;2024-01-30T01:14:50;21.50;;;12.93;;
22160;SDS011;49035;48.812;11.762;2024-01-30T01:17:15;26.67;;;13.87;;
22160;SDS011;49035;48.812;11.762;2024-01-30T01:19:41;26.37;;;14.27;;
22160;SDS011;49035;48.812;11.762;2024-01-30T01:22:07;23.30;;;13.27;;
22160;SDS011;49035;48.812;11.762;2024-01-30T01:24:33;20.97;;;11.73;;
22160;SDS011;49035;48.812;11.762;2024-01-30T01:26:59;23.83;;;12.43;;
22160;SDS011;49035;48.812;11.762;2024-01-30T01:29:25;20.63;;;12.27;;
22160;SDS011;49035;48.812;11.762;2024-01-30T01:31:57;22.90;;;12.90;;
22160;SDS011;49035;48.812;11.762;2024-01-30T01:34:23;19.63;;;11.70;;
22160;SDS011;49035;48.812;11.762;2024-01-30T01:36:49;26.00;;;12.83;;
22160;SDS011;49035;48.812;11.762;2024-01-30T01:39:14;21.60;;;12.37;;
22160;SDS011;49035;48.812;11.762;2024-01-30T01:41:40;27.63;;;12.67;;
22160;SDS011;49035;48.812;11.762;2024-01-30T01:44:06;19.83;;;12.37;;
22160;SDS011;49035;48.812;11.762;2024-01-30T01:46:33;29.73;;;15.63;;
22160;SDS011;49035;48.812;11.762;2024-01-30T01:49:00;23.60;;;11.97;;
22160;SDS011;49035;48.812;11.762;2024-01-30T01:51:30;25.13;;;12.33;;
22160;SDS011;49035;48.812;11.762;2024-01-30T01:53:58;25.67;;;13.97;;
22160;SDS011;49035;48.812;11.762;2024-01-30T01:56:28;22.77;;;12.70;;
22160;SDS011;49035;48.812;11.762;2024-01-30T01:58:55;20.63;;;12.63;;
22160;SDS011;49035;48.812;11.762;2024-01-30T02:01:24;24.53;;;12.83;;
22160;SDS011;49035;48.812;11.762;2024-01-30T02:03:51;25.00;;;13.17;;
22160;SDS011;49035;48.812;11.762;2024-01-30T02:06:17;24.67;;;12.07;;
22160;SDS011;49035;48.812;11.762;2024-01-30T02:08:44;23.00;;;12.67;;
22160;SDS011;49035;48.812;11.762;2024-01-30T02:11:09;24.50;;;12.33;;
22160;SDS011;49035;48.812;11.762;2024-01-30T02:13:36;23.97;;;13.13;;
22160;SDS011;49035;48.812;11.762;2024-01-30T02:16:02;24.57;;;14.33;;
22160;SDS011;49035;48.812;11.762;2024-01-30T02:18:27;19.63;;;11.63;;
22160;SDS011;49035;48.812;11.762;2024-01-30T02:20:53;31.33;;;14.80;;
22160;SDS011;49035;48.812;11.762;2024-01-30T02:23:22;28.30;;;14.10;;
22160;SDS011;49035;48.812;11.762;2024-01-30T02:25:50;24.70;;;13.87;;
22160;SDS011;49035;48.812;11.762;2024-01-30T02:28:18;28.03;;;13.13;;
22160;SDS011;49035;48.812;11.762;2024-01-30T02:30:44;23.20;;;13.57;;
22160;SDS011;49035;48.812;11.762;2024-01-30T02:33:11;26.53;;;13.73;;
22160;SDS011;49035;48.812;11.762;2024-01-30T02:35:37;27.17;;;13.87;;
22160;SDS011;49035;48.812;11.762;2024-01-30T02:38:03;28.50;;;14.23;;
22160;SDS011;49035;48.812;11.762;2024-01-30T02:40:29;28.30;;;13.03;;
22160;SDS011;49035;48.812;11.762;2024-01-30T02:42:54;28.50;;;13.87;;
22160;SDS011;49035;48.812;11.762;2024-01-30T02:45:21;24.03;;;13.60;;
22160;SDS011;49035;48.812;11.762;2024-01-30T02:47:46;22.67;;;13.70;;
22160;SDS011;49035;48.812;11.762;2024-01-30T02:50:12;23.77;;;13.03;;
22160;SDS011;49035;48.812;11.762;2024-01-30T02:52:39;26.10;;;13.60;;
22160;SDS011;49035;48.812;11.762;2024-01-30T02:55:04;22.90;;;13.47;;
22160;SDS011;49035;48.812;11.762;2024-01-30T02:57:30;24.27;;;13.07;;
22160;SDS011;49035;48.812;11.762;2024-01-30T02:59:56;23.60;;;12.13;;
22160;SDS011;49035;48.812;11.762;2024-01-30T03:02:21;26.50;;;12.27;;
22160;SDS011;49035;48.812;11.762;2024-01-30T03:04:47;24.93;;;12.93;;
22160;SDS011;49035;48.812;11.762;2024-01-30T03:07:13;25.00;;;13.00;;
22160;SDS011;49035;48.812;11.762;2024-01-30T03:09:38;21.53;;;12.00;;
22160;SDS011;49035;48.812;11.762;2024-01-30T03:12:06;26.03;;;12.73;;
22160;SDS011;49035;48.812;11.762;2024-01-30T03:14:31;25.63;;;13.93;;
22160;SDS011;49035;48.812;11.762;2024-01-30T03:16:57;26.53;;;13.70;;
22160;SDS011;49035;48.812;11.762;2024-01-30T03:19:23;27.63;;;13.60;;
22160;SDS011;49035;48.812;11.762;2024-01-30T03:21:49;27.60;;;14.47;;
22160;SDS011;49035;48.812;11.762;2024-01-30T03:24:15;20.93;;;12.63;;
22160;SDS011;49035;48.812;11.762;2024-01-30T03:26:40;25.20;;;14.57;;
22160;SDS011;49035;48.812;11.762;2024-01-30T03:29:06;22.07;;;12.77;;
22160;SDS011;49035;48.812;11.762;2024-01-30T03:31:32;27.17;;;13.60;;
22160;SDS011;49035;48.812;11.762;2024-01-30T03:33:58;20.40;;;12.03;;
22160;SDS011;49035;48.812;11.762;2024-01-30T03:36:23;30.23;;;13.83;;
22160;SDS011;49035;48.812;11.762;2024-01-30T03:38:49;24.13;;;13.93;;
22160;SDS011;49035;48.812;11.762;2024-01-30T03:41:15;25.73;;;14.50;;
22160;SDS011;49035;48.812;11.762;2024-01-30T03:43:40;26.97;;;13.27;;
22160;SDS011;49035;48.812;11.762;2024-01-30T03:46:06;22.83;;;12.27;;
22160;SDS011;49035;48.812;11.762;2024-01-30T03:48:32;22.07;;;13.17;;
22160;SDS011;49035;48.812;11.762;2024-01-30T03:50:57;24.57;;;12.80;;
22160;SDS011;49035;48.812;11.762;2024-01-30T03:53:23;22.87;;;12.87;;
22160;SDS011;49035;48.812;11.762;2024-01-30T03:55:48;25.37;;;13.57;;
22160;SDS011;49035;48.812;11.762;2024-01-30T03:58:14;20.47;;;12.10;;
22160;SDS011;49035;48.812;11.762;2024-01-30T04:00:40;23.37;;;12.67;;
22160;SDS011;49035;48.812;11.762;2024-01-30T04:03:06;28.10;;;13.20;;
22160;SDS011;49035;48.812;11.762;2024-01-30T04:05:32;24.07;;;13.23;;
22160;SDS011;49035;48.812;11.762;2024-01-30T04:07:57;25.20;;;13.30;;
22160;SDS011;49035;48.812;11.762;2024-01-30T04:10:23;29.50;;;13.07;;
22160;SDS011;49035;48.812;11.762;2024-01-30T04:12:50;23.63;;;13.20;;
22160;SDS011;49035;48.812;11.762;2024-01-30T04:15:16;26.77;;;13.53;;
22160;SDS011;49035;48.812;11.762;2024-01-30T04:17:42;25.80;;;13.43;;
22160;SDS011;49035;48.812;11.762;2024-01-30T04:20:09;24.53;;;14.50;;
22160;SDS011;49035;48.812;11.762;2024-01-30T04:22:42;33.13;;;15.50;;
22160;SDS011;49035;48.812;11.762;2024-01-30T04:25:08;32.17;;;17.10;;
22160;SDS011;49035;48.812;11.762;2024-01-30T04:27:34;30.87;;;16.00;;
22160;SDS011;49035;48.812;11.762;2024-01-30T04:29:59;33.73;;;16.77;;
22160;SDS011;49035;48.812;11.762;2024-01-30T04:32:25;33.63;;;16.10;;
22160;SDS011;49035;48.812;11.762;2024-01-30T04:34:50;28.17;;;15.10;;
22160;SDS011;49035;48.812;11.762;2024-01-30T04:37:16;30.60;;;15.13;;
22160;SDS011;49035;48.812;11.762;2024-01-30T04:39:41;26.00;;;15.10;;
22160;SDS011;49035;48.812;11.762;2024-01-30T04:42:08;24.27;;;13.80;;
22160;SDS011;49035;48.812;11.762;2024-01-30T04:44:33;23.23;;;13.40;;
22160;SDS011;49035;48.812;11.762;2024-01-30T04:46:59;28.87;;;14.57;;
22160;SDS011;49035;48.812;11.762;2024-01-30T04:49:26;27.03;;;14.83;;
22160;SDS011;49035;48.812;11.762;2024-01-30T04:51:52;27.43;;;14.53;;
22160;SDS011;49035;48.812;11.762;2024-01-30T04:54:17;29.00;;;14.73;;
22160;SDS011;49035;48.812;11.762;2024-01-30T04:56:45;31.37;;;15.60;;
22160;SDS011;49035;48.812;11.762;2024-01-30T04:59:10;27.00;;;14.87;;
22160;SDS011;49035;48.812;11.762;2024-01-30T05:01:36;28.93;;;15.70;;
22160;SDS011;49035;48.812;11.762;2024-01-30T05:04:02;27.53;;;14.73;;
22160;SDS011;49035;48.812;11.762;2024-01-30T05:06:28;31.67;;;15.20;;
22160;SDS011;49035;48.812;11.762;2024-01-30T05:08:54;28.80;;;14.97;;
22160;SDS011;49035;48.812;11.762;2024-01-30T05:11:20;27.70;;;15.40;;
22160;SDS011;49035;48.812;11.762;2024-01-30T05:13:46;30.23;;;15.23;;
22160;SDS011;49035;48.812;11.762;2024-01-30T05:16:11;29.93;;;14.80;;
22160;SDS011;49035;48.812;11.762;2024-01-30T05:18:37;28.67;;;15.87;;
22160;SDS011;49035;48.812;11.762;2024-01-30T05:21:03;29.27;;;14.90;;
22160;SDS011;49035;48.812;11.762;2024-01-30T05:23:28;29.40;;;16.37;;
22160;SDS011;49035;48.812;11.762;2024-01-30T05:25:54;29.33;;;15.27;;
22160;SDS011;49035;48.812;11.762;2024-01-30T05:28:19;35.83;;;16.67;;
22160;SDS011;49035;48.812;11.762;2024-01-30T05:30:45;31.37;;;15.93;;
22160;SDS011;49035;48.812;11.762;2024-01-30T05:33:11;34.93;;;17.83;;
22160;SDS011;49035;48.812;11.762;2024-01-30T05:35:37;34.57;;;16.83;;
22160;SDS011;49035;48.812;11.762;2024-01-30T05:38:03;37.33;;;17.63;;
22160;SDS011;49035;48.812;11.762;2024-01-30T05:40:29;34.67;;;16.00;;
22160;SDS011;49035;48.812;11.762;2024-01-30T05:42:55;33.43;;;18.13;;
22160;SDS011;49035;48.812;11.762;2024-01-30T05:45:21;27.63;;;15.33;;
22160;SDS011;49035;48.812;11.762;2024-01-30T05:47:48;32.37;;;15.53;;
22160;SDS011;49035;48.812;11.762;2024-01-30T05:50:14;29.83;;;15.57;;
22160;SDS011;49035;48.812;11.762;2024-01-30T05:52:39;29.60;;;15.67;;
22160;SDS011;49035;48.812;11.762;2024-01-30T05:55:05;29.00;;;14.80;;
22160;SDS011;49035;48.812;11.762;2024-01-30T05:57:31;28.27;;;14.50;;
22160;SDS011;49035;48.812;11.762;2024-01-30T05:59:57;26.27;;;15.17;;
22160;SDS011;49035;48.812;11.762;2024-01-30T06:02:23;32.37;;;15.27;;
22160;SDS011;49035;48.812;11.762;2024-01-30T06:04:48;29.67;;;16.27;;
22160;SDS011;49035;48.812;11.762;2024-01-30T06:07:14;31.70;;;16.27;;
22160;SDS011;49035;48.812;11.762;2024-01-30T06:09:39;31.83;;;15.73;;
22160;SDS011;49035;48.812;11.762;2024-01-30T06:12:06;29.13;;;15.00;;
22160;SDS011;49035;48.812;11.762;2024-01-30T06:14:31;27.43;;;15.70;;
22160;SDS011;49035;48.812;11.762;2024-01-30T06:16:58;29.23;;;15.90;;
22160;SDS011;49035;48.812;11.762;2024-01-30T06:19:24;23.20;;;13.60;;
22160;SDS011;49035;48.812;11.762;2024-01-30T06:21:49;31.67;;;15.47;;
22160;SDS011;49035;48.812;11.762;2024-01-30T06:24:15;26.43;;;14.87;;
22160;SDS011;49035;48.812;11.762;2024-01-30T06:26:41;33.43;;;15.80;;
22160;SDS011;49035;48.812;11.762;2024-01-30T06:29:06;34.07;;;15.83;;
22160;SDS011;49035;48.812;11.762;2024-01-30T06:31:32;34.07;;;16.67;;
22160;SDS011;49035;48.812;11.762;2024-01-30T06:33:58;30.87;;;16.53;;
22160;SDS011;49035;48.812;11.762;2024-01-30T06:36:24;38.80;;;18.50;;
22160;SDS011;49035;48.812;11.762;2024-01-30T06:38:49;34.33;;;18.13;;
22160;SDS011;49035;48.812;11.762;2024-01-30T06:41:15;33.30;;;19.07;;
22160;SDS011;49035;48.812;11.762;2024-01-30T06:43:40;33.83;;;17.77;;
22160;SDS011;49035;48.812;11.762;2024-01-30T06:46:06;36.80;;;17.47;;
22160;SDS011;49035;48.812;11.762;2024-01-30T06:48:32;42.07;;;19.03;;
22160;SDS011;49035;48.812;11.762;2024-01-30T06:50:57;31.53;;;16.10;;
22160;SDS011;49035;48.812;11.762;2024-01-30T06:53:23;32.50;;;17.20;;
22160;SDS011;49035;48.812;11.762;2024-01-30T06:55:49;28.10;;;17.40;;
22160;SDS011;49035;48.812;11.762;2024-01-30T06:58:16;37.57;;;18.20;;
22160;SDS011;49035;48.812;11.762;2024-01-30T07:00:42;33.77;;;16.53;;
22160;SDS011;49035;48.812;11.762;2024-01-30T07:03:07;37.50;;;16.90;;
22160;SDS011;49035;48.812;11.762;2024-01-30T07:05:33;33.27;;;18.30;;
22160;SDS011;49035;48.812;11.762;2024-01-30T07:07:58;35.47;;;18.97;;
22160;SDS011;49035;48.812;11.762;2024-01-30T07:10:24;33.70;;;18.67;;
22160;SDS011;49035;48.812;11.762;2024-01-30T07:12:50;35.37;;;17.90;;
22160;SDS011;49035;48.812;11.762;2024-01-30T07:15:15;41.70;;;19.30;;
22160;SDS011;49035;48.812;11.762;2024-01-30T07:17:44;43.17;;;20.83;;
22160;SDS011;49035;48.812;11.762;2024-01-30T07:20:10;41.97;;;22.13;;
22160;SDS011;49035;48.812;11.762;2024-01-30T07:22:36;41.50;;;21.37;;
22160;SDS011;49035;48.812;11.762;2024-01-30T07:25:02;40.73;;;22.37;;
22160;SDS011;49035;48.812;11.762;2024-01-30T07:27:28;40.43;;;20.83;;
22160;SDS011;49035;48.812;11.762;2024-01-30T07:29:53;47.47;;;23.07;;
22160;SDS011;49035;48.812;11.762;2024-01-30T07:32:19;44.10;;;22.30;;
22160;SDS011;49035;48.812;11.762;2024-01-30T07:34:45;43.53;;;22.03;;
22160;SDS011;49035;48.812;11.762;2024-01-30T07:37:10;48.97;;;23.93;;
22160;SDS011;49035;48.812;11.762;2024-01-30T07:39:38;46.87;;;22.70;;
22160;SDS011;49035;48.812;11.762;2024-01-30T07:42:03;45.57;;;23.87;;
22160;SDS011;49035;48.812;11.762;2024-01-30T07:44:29;45.77;;;24.60;;
22160;SDS011;49035;48.812;11.762;2024-01-30T07:46:55;54.47;;;26.60;;
22160;SDS011;49035;48.812;11.762;2024-01-30T07:49:20;47.13;;;25.37;;
22160;SDS011;49035;48.812;11.762;2024-01-30T07:51:46;49.70;;;24.80;;
22160;SDS011;49035;48.812;11.762;2024-01-30T07:54:11;53.33;;;27.77;;
22160;SDS011;49035;48.812;11.762;2024-01-30T07:56:37;58.20;;;29.47;;
22160;SDS011;49035;48.812;11.762;2024-01-30T07:59:02;61.27;;;29.27;;
22160;SDS011;49035;48.812;11.762;2024-01-30T08:01:29;59.73;;;29.03;;
22160;SDS011;49035;48.812;11.762;2024-01-30T08:03:54;56.53;;;29.43;;
22160;SDS011;49035;48.812;11.762;2024-01-30T08:06:20;60.60;;;31.10;;
22160;SDS011;49035;48.812;11.762;2024-01-30T08:08:45;65.20;;;29.80;;
22160;SDS011;49035;48.812;11.762;2024-01-30T08:11:11;64.03;;;30.37;;
22160;SDS011;49035;48.812;11.762;2024-01-30T08:13:37;61.83;;;30.33;;
22160;SDS011;49035;48.812;11.762;2024-01-30T08:16:03;65.07;;;32.90;;
22160;SDS011;49035;48.812;11.762;2024-01-30T08:18:29;61.27;;;31.50;;
22160;SDS011;49035;48.812;11.762;2024-01-30T08:20:54;65.93;;;32.13;;
22160;SDS011;49035;48.812;11.762;2024-01-30T08:23:20;65.03;;;33.60;;
22160;SDS011;49035;48.812;11.762;2024-01-30T08:25:46;60.87;;;31.73;;
22160;SDS011;49035;48.812;11.762;2024-01-30T08:28:11;70.43;;;32.30;;
22160;SDS011;49035;48.812;11.762;2024-01-30T08:30:37;67.37;;;31.67;;
22160;SDS011;49035;48.812;11.762;2024-01-30T08:33:04;72.23;;;34.43;;
22160;SDS011;49035;48.812;11.762;2024-01-30T08:35:29;63.10;;;34.67;;
22160;SDS011;49035;48.812;11.762;2024-01-30T08:37:58;70.17;;;33.53;;
22160;SDS011;49035;48.812;11.762;2024-01-30T08:40:24;79.93;;;36.00;;
22160;SDS011;49035;48.812;11.762;2024-01-30T08:42:50;72.83;;;36.13;;
22160;SDS011;49035;48.812;11.762;2024-01-30T08:45:15;69.13;;;33.03;;
22160;SDS011;49035;48.812;11.762;2024-01-30T08:47:41;67.67;;;33.13;;
22160;SDS011;49035;48.812;11.762;2024-01-30T08:50:07;68.03;;;35.30;;
22160;SDS011;49035;48.812;11.762;2024-01-30T08:52:32;65.17;;;34.57;;
22160;SDS011;49035;48.812;11.762;2024-01-30T08:54:59;67.60;;;35.83;;
22160;SDS011;49035;48.812;11.762;2024-01-30T08:57:25;70.60;;;34.80;;
22160;SDS011;49035;48.812;11.762;2024-01-30T08:59:53;69.63;;;34.17;;
22160;SDS011;49035;48.812;11.762;2024-01-30T09:02:19;65.70;;;34.67;;
22160;SDS011;49035;48.812;11.762;2024-01-30T09:04:45;64.57;;;33.87;;
22160;SDS011;49035;48.812;11.762;2024-01-30T09:07:11;68.83;;;35.23;;
22160;SDS011;49035;48.812;11.762;2024-01-30T09:09:38;65.13;;;34.10;;
22160;SDS011;49035;48.812;11.762;2024-01-30T09:12:06;68.53;;;35.10;;
22160;SDS011;49035;48.812;11.762;2024-01-30T09:14:34;71.43;;;34.67;;
22160;SDS011;49035;48.812;11.762;2024-01-30T09:17:00;68.43;;;34.60;;
22160;SDS011;49035;48.812;11.762;2024-01-30T09:19:28;61.57;;;33.97;;
22160;SDS011;49035;48.812;11.762;2024-01-30T09:21:53;64.87;;;35.03;;
22160;SDS011;49035;48.812;11.762;2024-01-30T09:24:19;62.83;;;34.03;;
22160;SDS011;49035;48.812;11.762;2024-01-30T09:26:45;68.10;;;33.00;;
22160;SDS011;49035;48.812;11.762;2024-01-30T09:29:10;66.70;;;34.50;;
22160;SDS011;49035;48.812;11.762;2024-01-30T09:31:36;66.27;;;33.53;;
22160;SDS011;49035;48.812;11.762;2024-01-30T09:34:01;67.90;;;34.23;;
22160;SDS011;49035;48.812;11.762;2024-01-30T09:36:27;57.00;;;33.17;;
22160;SDS011;49035;48.812;11.762;2024-01-30T09:38:52;59.30;;;33.37;;
22160;SDS011;49035;48.812;11.762;2024-01-30T09:41:18;61.70;;;33.53;;
22160;SDS011;49035;48.812;11.762;2024-01-30T09:43:46;65.40;;;35.10;;
22160;SDS011;49035;48.812;11.762;2024-01-30T09:46:16;65.53;;;35.40;;
22160;SDS011;49035;48.812;11.762;2024-01-30T09:48:43;59.20;;;32.90;;
22160;SDS011;49035;48.812;11.762;2024-01-30T09:51:11;59.37;;;34.50;;
22160;SDS011;49035;48.812;11.762;2024-01-30T09:53:39;64.67;;;33.33;;
22160;SDS011;49035;48.812;11.762;2024-01-30T09:56:07;63.10;;;32.20;;
22160;SDS011;49035;48.812;11.762;2024-01-30T09:58:32;56.53;;;32.67;;
22160;SDS011;49035;48.812;11.762;2024-01-30T10:00:58;56.73;;;33.00;;
22160;SDS011;49035;48.812;11.762;2024-01-30T10:03:24;62.30;;;32.77;;
22160;SDS011;49035;48.812;11.762;2024-01-30T10:05:50;57.50;;;30.87;;
22160;SDS011;49035;48.812;11.762;2024-01-30T10:08:19;59.10;;;31.13;;
22160;SDS011;49035;48.812;11.762;2024-01-30T10:10:46;55.17;;;31.13;;
22160;SDS011;49035;48.812;11.762;2024-01-30T10:13:12;49.47;;;30.33;;
22160;SDS011;49035;48.812;11.762;2024-01-30T10:15:38;45.87;;;27.97;;
22160;SDS011;49035;48.812;11.762;2024-01-30T10:18:04;47.40;;;26.70;;
22160;SDS011;49035;48.812;11.762;2024-01-30T10:20:31;44.47;;;25.67;;
22160;SDS011;49035;48.812;11.762;2024-01-30T10:22:57;41.63;;;24.93;;
22160;SDS011;49035;48.812;11.762;2024-01-30T10:25:25;39.57;;;23.67;;
22160;SDS011;49035;48.812;11.762;2024-01-30T10:27:54;43.83;;;25.50;;
22160;SDS011;49035;48.812;11.762;2024-01-30T10:30:20;36.40;;;23.60;;
22160;SDS011;49035;48.812;11.762;2024-01-30T10:32:46;36.03;;;23.10;;
22160;SDS011;49035;48.812;11.762;2024-01-30T10:35:12;36.13;;;22.63;;
22160;SDS011;49035;48.812;11.762;2024-01-30T10:37:38;40.73;;;23.23;;
22160;SDS011;49035;48.812;11.762;2024-01-30T10:40:03;41.83;;;23.63;;
22160;SDS011;49035;48.812;11.762;2024-01-30T10:42:32;37.83;;;22.67;;
22160;SDS011;49035;48.812;11.762;2024-01-30T10:47:28;35.53;;;22.37;;
22160;SDS011;49035;48.812;11.762;2024-01-30T10:49:54;34.70;;;21.83;;
22160;SDS011;49035;48.812;11.762;2024-01-30T10:52:22;36.30;;;21.80;;
22160;SDS011;49035;48.812;11.762;2024-01-30T10:54:54;33.70;;;20.90;;
22160;SDS011;49035;48.812;11.762;2024-01-30T10:57:21;31.40;;;20.10;;
22160;SDS011;49035;48.812;11.762;2024-01-30T10:59:48;31.33;;;19.40;;
22160;SDS011;49035;48.812;11.762;2024-01-30T11:02:16;30.67;;;20.07;;
22160;SDS011;49035;48.812;11.762;2024-01-30T11:04:42;30.13;;;19.10;;
22160;SDS011;49035;48.812;11.762;2024-01-30T11:07:14;27.53;;;18.07;;
22160;SDS011;49035;48.812;11.762;2024-01-30T11:09:49;30.13;;;19.03;;
22160;SDS011;49035;48.812;11.762;2024-01-30T11:12:15;27.53;;;18.47;;
22160;SDS011;49035;48.812;11.762;2024-01-30T11:14:41;29.73;;;18.57;;
22160;SDS011;49035;48.812;11.762;2024-01-30T11:17:08;35.97;;;19.90;;
22160;SDS011;49035;48.812;11.762;2024-01-30T11:19:37;31.70;;;19.73;;
22160;SDS011;49035;48.812;11.762;2024-01-30T11:22:03;30.33;;;20.43;;
22160;SDS011;49035;48.812;11.762;2024-01-30T11:24:29;31.20;;;18.20;;
22160;SDS011;49035;48.812;11.762;2024-01-30T11:26:55;28.00;;;18.27;;
22160;SDS011;49035;48.812;11.762;2024-01-30T11:29:29;28.00;;;17.93;;
22160;SDS011;49035;48.812;11.762;2024-01-30T11:31:55;31.43;;;19.40;;
22160;SDS011;49035;48.812;11.762;2024-01-30T11:34:22;31.27;;;19.40;;
22160;SDS011;49035;48.812;11.762;2024-01-30T11:36:51;28.33;;;18.03;;
22160;SDS011;49035;48.812;11.762;2024-01-30T11:39:23;25.47;;;16.97;;
22160;SDS011;49035;48.812;11.762;2024-01-30T11:41:50;30.47;;;18.47;;
22160;SDS011;49035;48.812;11.762;2024-01-30T11:44:17;26.47;;;17.67;;
22160;SDS011;49035;48.812;11.762;2024-01-30T11:46:45;29.52;;;18.30;;
22160;SDS011;49035;48.812;11.762;2024-01-30T11:49:11;25.73;;;17.80;;
22160;SDS011;49035;48.812;11.762;2024-01-30T11:51:37;28.52;;;19.55;;
22160;SDS011;49035;48.812;11.762;2024-01-30T11:54:03;27.23;;;17.83;;
22160;SDS011;49035;48.812;11.762;2024-01-30T11:56:28;26.23;;;17.92;;
22160;SDS011;49035;48.812;11.762;2024-01-30T11:58:54;31.25;;;18.73;;
22160;SDS011;49035;48.812;11.762;2024-01-30T12:01:20;26.27;;;17.90;;
22160;SDS011;49035;48.812;11.762;2024-01-30T12:03:49;29.37;;;17.63;;
22160;SDS011;49035;48.812;11.762;2024-01-30T12:06:15;25.38;;;17.65;;
22160;SDS011;49035;48.812;11.762;2024-01-30T12:08:41;32.07;;;18.43;;
22160;SDS011;49035;48.812;11.762;2024-01-30T12:11:07;29.07;;;18.43;;
22160;SDS011;49035;48.812;11.762;2024-01-30T12:13:33;31.03;;;19.20;;
22160;SDS011;49035;48.812;11.762;2024-01-30T12:18:27;26.30;;;17.07;;
22160;SDS011;49035;48.812;11.762;2024-01-30T12:20:59;29.80;;;17.70;;
22160;SDS011;49035;48.812;11.762;2024-01-30T12:23:26;27.13;;;17.67;;
22160;SDS011;49035;48.812;11.762;2024-01-30T12:25:53;29.23;;;17.17;;
22160;SDS011;49035;48.812;11.762;2024-01-30T12:28:19;27.52;;;17.65;;
22160;SDS011;49035;48.812;11.762;2024-01-30T12:30:45;26.20;;;17.70;;
22160;SDS011;49035;48.812;11.762;2024-01-30T12:33:15;29.58;;;18.52;;
22160;SDS011;49035;48.812;11.762;2024-01-30T12:35:45;23.63;;;16.63;;
22160;SDS011;49035;48.812;11.762;2024-01-30T12:38:12;24.55;;;16.50;;
22160;SDS011;49035;48.812;11.762;2024-01-30T12:40:39;24.45;;;17.25;;
22160;SDS011;49035;48.812;11.762;2024-01-30T12:43:04;24.13;;;16.88;;
22160;SDS011;49035;48.812;11.762;2024-01-30T12:45:30;26.27;;;16.23;;
22160;SDS011;49035;48.812;11.762;2024-01-30T12:47:55;23.77;;;16.20;;
22160;SDS011;49035;48.812;11.762;2024-01-30T12:50:21;24.05;;;16.55;;
22160;SDS011;49035;48.812;11.762;2024-01-30T12:52:47;23.63;;;15.98;;
22160;SDS011;49035;48.812;11.762;2024-01-30T12:55:13;24.65;;;17.45;;
22160;SDS011;49035;48.812;11.762;2024-01-30T12:57:38;25.40;;;16.13;;
22160;SDS011;49035;48.812;11.762;2024-01-30T13:00:04;23.25;;;15.07;;
22160;SDS011;49035;48.812;11.762;2024-01-30T13:02:33;24.45;;;16.08;;
22160;SDS011;49035;48.812;11.762;2024-01-30T13:05:02;28.13;;;16.13;;
22160;SDS011;49035;48.812;11.762;2024-01-30T13:07:29;23.38;;;15.57;;
22160;SDS011;49035;48.812;11.762;2024-01-30T13:09:54;23.88;;;16.42;;
22160;SDS011;49035;48.812;11.762;2024-01-30T13:12:20;25.30;;;17.15;;
22160;SDS011;49035;48.812;11.762;2024-01-30T13:14:45;22.77;;;15.23;;
22160;SDS011;49035;48.812;11.762;2024-01-30T13:17:11;24.85;;;16.15;;
22160;SDS011;49035;48.812;11.762;2024-01-30T13:19:37;29.25;;;16.83;;
22160;SDS011;49035;48.812;11.762;2024-01-30T13:22:02;22.63;;;15.63;;
22160;SDS011;49035;48.812;11.762;2024-01-30T13:24:28;23.05;;;16.50;;
22160;SDS011;49035;48.812;11.762;2024-01-30T13:26:54;20.45;;;15.68;;
22160;SDS011;49035;48.812;11.762;2024-01-30T13:29:19;22.70;;;15.68;;
22160;SDS011;49035;48.812;11.762;2024-01-30T13:31:45;28.73;;;17.77;;
22160;SDS011;49035;48.812;11.762;2024-01-30T13:34:12;22.90;;;16.85;;
22160;SDS011;49035;48.812;11.762;2024-01-30T13:36:38;27.58;;;16.73;;
22160;SDS011;49035;48.812;11.762;2024-01-30T13:39:04;20.38;;;15.40;;
22160;SDS011;49035;48.812;11.762;2024-01-30T13:41:35;21.98;;;16.80;;
22160;SDS011;49035;48.812;11.762;2024-01-30T13:44:01;25.27;;;16.13;;
22160;SDS011;49035;48.812;11.762;2024-01-30T13:46:28;25.45;;;16.77;;
22160;SDS011;49035;48.812;11.762;2024-01-30T13:48:54;21.10;;;15.73;;
22160;SDS011;49035;48.812;11.762;2024-01-30T13:51:20;22.02;;;16.45;;
22160;SDS011;49035;48.812;11.762;2024-01-30T13:53:45;28.90;;;16.55;;
22160;SDS011;49035;48.812;11.762;2024-01-30T13:56:11;28.25;;;16.65;;
22160;SDS011;49035;48.812;11.762;2024-01-30T13:58:37;25.88;;;17.75;;
22160;SDS011;49035;48.812;11.762;2024-01-30T14:01:02;27.55;;;17.45;;
22160;SDS011;49035;48.812;11.762;2024-01-30T14:03:28;27.15;;;17.58;;
22160;SDS011;49035;48.812;11.762;2024-01-30T14:05:54;33.75;;;19.30;;
22160;SDS011;49035;48.812;11.762;2024-01-30T14:08:19;29.63;;;19.95;;